Terminal Aerodrome Forecast
Issued by NWS

Current Version | Previous Version | Text Only | Print | Product List | Glossary On
Versions: 1 2 3 4 5 6 7 8 9 10 11 12 13 14 15
000
FTUS42 TJSJ 011129
TAFJSJ
TAF
TJSJ 011129Z 0112/0212 08010KT P6SM VCSH FEW022 BKN040 BKN060
     FM011300 08018G23KT P6SM VCSH FEW025 BKN045 BKN060
     FM012230 09010KT P6SM FEW025 SCT050=

USA.gov is the U.S. government's official web portal to all federal, state and local government web resources and services.